Buffalo, MN (55313)

6:40 AM CDT on August 30, 2014 (GMT -0500)
Buffalo | Change Station
CLOSE
Current Station
Airport
Location: Buffalo,
Elevation: 968 ft
Nearby Weather Stations

Elev 968 ft 45.16 °N, 93.85 °W | Updated 5 minutes ago

Overcast
Overcast
66 °F
Feels Like 66 °F
N
4
Wind Variable Wind from NNW

Today
High -- | Low -- °F
--% Chance of Precip.
Yesterday
High -- | Low -- °F
Precip. -- in
6:34 AM 7:56 PM
Waxing Crescent, 21% visible
Pressure 29.84 in
Visibility 10.0 miles
Clouds Scattered Clouds 3000 ft
Scattered Clouds 3600 ft
Overcast 4200 ft
Dew Point 64 °F
Humidity 92%
Rainfall 0.00 in
Snow Depth Not available.
UV 0 out of 12
Pollen 5.30 out of 12
Ozone Good
PM2.5 Good
Flu Activity Not available.
METAR KCFE 301135Z AUTO 33003KT 10SM SCT030 SCT036 OVC042 19/18 A2984 RMK AO2 T01910177

More Conditions Fewer Conditions

Pressure 29.84 in
Visibility 10.0 miles
Clouds Scattered Clouds 3000 ft
Scattered Clouds 3600 ft
Overcast 4200 ft
Dew Point 64 °F
Humidity 92%
Rainfall 0.00 in
Snow Depth Not available.
UV 0 out of 12
Pollen 5.30 out of 12
Ozone Good
PM2.5 Good
Flu Activity Not available.
METAR KCFE 301135Z AUTO 33003KT 10SM SCT030 SCT036 OVC042 19/18 A2984 RMK AO2 T01910177

More Conditions Fewer Conditions

10-Day Weather Forecast

Almanac

Astronomy

Aug. 30, 2014 Rise Set
Actual Time 6:34 AM CDT 7:56 PM CDT
Civil Twilight 6:04 AM CDT 8:26 PM CDT
Nautical Twilight 5:27 AM CDT 9:03 PM CDT
Astronomical Twilight 4:48 AM CDT 9:42 PM CDT
Moon 11:38 AM CDT 10:15 PM CDT
Length of Visible Light 14h 22m
Length of Day
13h 21m
Tomorrow will be 3m 2s shorter.
Waxing Crescent, 21% of the Moon is Illuminated
Today
Waxing Crescent
Sep 2
First Quarter
Sep 8
Full
Sep 15
Last Quarter
Sep 24
New

Today's Extremes

State Highs State Lows

Community

WunderPhotos

Upload Photos

1,748,492 photos uploaded!

WunderBlogs® & News

By Dr. Jeff Masters
Director of Meteorology, Weather Underground
By Kari Strenfel
Meteorologist, Weather Underground
By Christopher C. Burt
Weather Historian, Weather Underground
August 30, 2014
August 30, 2014
August 30, 2014

Nearby

Air Quality

  Air Quality AQ Index Pollutant
Yesterday Good
OZONE
Yesterday Good
PM2.5
Current Good
OZONE
Current Good
PM2.5
Saturday Good
OZONE
Saturday Good
PM2.5
Sunday Moderate
PM2.5
Sunday Good
OZONE
Monday Good
OZONE
Monday Good
PM2.5
Tuesday Good
OZONE
Tuesday Good
PM2.5
Wednesday Good
OZONE
Wednesday Good
PM2.5

Snow Depth

Station Depth Elevation
No new snow has been reported.

Earthquake Activity

City Distance Mag. Time & Date
No recent earthquake activity has been reported nearby.
Minimum magnitude displayed is 2.5.

Coastal Water Temperatures

Place Temperature
No Stations Reporting

Nearby Weather Stations